Time,TemperatureF,DewpointF,PressureIn,WindDirection,WindDirectionDegrees,WindSpeedMPH,WindSpeedGustMPH,Humidity,HourlyPrecipIn,Conditions,Clouds,dailyrainin,SoftwareType,DateUTC
2013-02-10 00:00:00,29.7,25.5,30.36,SSE,160,0.0,0.0,84,0.00,,,0.00,Wunderground v.1.15,2013-02-10 05:00:00,
2013-02-10 00:01:00,29.7,25.5,30.36,SSE,159,0.0,0.0,84,0.00,,,0.00,Wunderground v.1.15,2013-02-10 05:01:00,
2013-02-10 00:03:00,29.7,25.5,30.36,SSE,159,0.0,0.0,84,0.00,,,0.00,Wunderground v.1.15,2013-02-10 05:03:00,
2013-02-10 00:08:00,29.6,25.4,30.36,SSE,159,0.0,0.0,84,0.00,,,0.00,Wunderground v.1.15,2013-02-10 05:08:00,
2013-02-10 00:14:00,29.4,25.2,30.37,SSE,159,0.0,0.0,84,0.00,,,0.00,Wunderground v.1.15,2013-02-10 05:14:00,
2013-02-10 00:20:00,29.4,25.2,30.37,SSE,159,0.0,0.0,84,0.00,,,0.00,Wunderground v.1.15,2013-02-10 05:20:00,
2013-02-10 00:26:00,29.3,25.4,30.37,SSE,159,0.0,0.0,85,0.00,,,0.00,Wunderground v.1.15,2013-02-10 05:26:00,
2013-02-10 00:32:00,29.1,25.2,30.38,SSE,159,0.0,0.0,85,0.00,,,0.00,Wunderground v.1.15,2013-02-10 05:32:00,
2013-02-10 00:37:00,29.0,25.1,30.38,SSE,160,0.0,0.0,85,0.00,,,0.00,Wunderground v.1.15,2013-02-10 05:37:00,
2013-02-10 00:43:00,28.9,25.0,30.38,SSE,159,0.0,0.0,85,0.00,,,0.00,Wunderground v.1.15,2013-02-10 05:43:00,
2013-02-10 00:49:00,28.9,25.0,30.38,SSE,159,0.0,0.0,85,0.00,,,0.00,Wunderground v.1.15,2013-02-10 05:49:00,
2013-02-10 00:51:00,28.8,24.9,30.38,SSE,159,0.0,0.0,85,0.00,,,0.00,Wunderground v.1.15,2013-02-10 05:51:00,
2013-02-10 00:56:00,28.7,24.8,30.37,SSE,159,0.0,0.0,85,0.00,,,0.00,Wunderground v.1.15,2013-02-10 05:56:00,
2013-02-10 01:02:00,28.7,25.0,30.37,SSE,159,0.0,0.0,86,0.00,,,0.00,Wunderground v.1.15,2013-02-10 06:02:00,
2013-02-10 01:08:00,28.7,25.0,30.37,SSE,160,0.0,0.0,86,0.00,,,0.00,Wunderground v.1.15,2013-02-10 06:08:00,
2013-02-10 01:14:00,28.6,24.9,30.37,SSE,159,0.0,0.0,86,0.00,,,0.00,Wunderground v.1.15,2013-02-10 06:14:00,
2013-02-10 01:19:00,28.5,24.8,30.37,SSE,158,0.0,0.0,86,0.00,,,0.00,Wunderground v.1.15,2013-02-10 06:19:00,
2013-02-10 01:25:00,28.4,24.7,30.37,SSE,159,0.0,0.0,86,0.00,,,0.00,Wunderground v.1.15,2013-02-10 06:25:00,
2013-02-10 01:31:00,28.3,24.6,30.37,SSE,159,0.0,0.0,86,0.00,,,0.00,Wunderground v.1.15,2013-02-10 06:31:00,
2013-02-10 01:37:00,28.3,24.6,30.37,SSE,159,0.0,0.0,86,0.00,,,0.00,Wunderground v.1.15,2013-02-10 06:37:00,
2013-02-10 01:43:00,28.2,24.6,30.38,SSE,159,0.0,0.0,86,0.00,,,0.00,Wunderground v.1.15,2013-02-10 06:43:00,
2013-02-10 01:49:00,28.0,24.4,30.38,SSE,159,0.0,0.0,86,0.00,,,0.00,Wunderground v.1.15,2013-02-10 06:49:00,
2013-02-10 01:55:00,28.0,24.4,30.38,SSE,159,0.0,0.0,86,0.00,,,0.00,Wunderground v.1.15,2013-02-10 06:55:00,
2013-02-10 02:01:00,27.9,24.5,30.39,SSE,159,0.0,0.0,87,0.00,,,0.00,Wunderground v.1.15,2013-02-10 07:01:00,
2013-02-10 02:06:00,27.8,24.2,30.39,SSE,159,0.0,0.0,86,0.00,,,0.00,Wunderground v.1.15,2013-02-10 07:06:00,
2013-02-10 02:12:00,27.8,24.4,30.39,SSE,159,0.0,0.0,87,0.00,,,0.00,Wunderground v.1.15,2013-02-10 07:12:00,
2013-02-10 02:18:00,27.7,24.1,30.39,SSE,159,0.0,0.0,86,0.00,,,0.00,Wunderground v.1.15,2013-02-10 07:18:00,
2013-02-10 02:24:00,27.7,24.3,30.40,SSE,159,0.0,0.0,87,0.00,,,0.00,Wunderground v.1.15,2013-02-10 07:24:00,
2013-02-10 02:29:00,27.7,24.3,30.40,SSE,159,0.0,0.0,87,0.00,,,0.00,Wunderground v.1.15,2013-02-10 07:29:00,
2013-02-10 02:35:00,27.7,24.3,30.40,SSE,159,0.0,0.0,87,0.00,,,0.00,Wunderground v.1.15,2013-02-10 07:35:00,
2013-02-10 02:41:00,27.7,24.3,30.40,SSE,159,0.0,0.0,87,0.00,,,0.00,Wunderground v.1.15,2013-02-10 07:41:00,
2013-02-10 02:47:00,27.6,24.2,30.40,SSE,159,0.0,0.0,87,0.00,,,0.00,Wunderground v.1.15,2013-02-10 07:47:00,
2013-02-10 02:53:00,27.5,24.1,30.40,SSE,159,0.0,0.0,87,0.00,,,0.00,Wunderground v.1.15,2013-02-10 07:53:00,
2013-02-10 02:59:00,27.5,24.1,30.40,SSE,159,0.0,0.0,87,0.00,,,0.00,Wunderground v.1.15,2013-02-10 07:59:00,
2013-02-10 03:05:00,27.4,24.0,30.40,SSE,159,0.0,0.0,87,0.00,,,0.00,Wunderground v.1.15,2013-02-10 08:05:00,
2013-02-10 03:10:00,27.3,23.9,30.40,SSE,159,0.0,0.0,87,0.00,,,0.00,Wunderground v.1.15,2013-02-10 08:10:00,
2013-02-10 03:16:00,27.2,23.6,30.40,SSE,158,0.0,0.0,86,0.00,,,0.00,Wunderground v.1.15,2013-02-10 08:16:00,
2013-02-10 03:22:00,27.1,23.5,30.40,SSE,158,0.0,0.0,86,0.00,,,0.00,Wunderground v.1.15,2013-02-10 08:22:00,
2013-02-10 03:28:00,27.1,23.2,30.41,SSE,158,0.0,0.0,85,0.00,,,0.00,Wunderground v.1.15,2013-02-10 08:28:00,
2013-02-10 03:34:00,27.0,23.1,30.41,SSE,158,0.0,0.0,85,0.00,,,0.00,Wunderground v.1.15,2013-02-10 08:34:00,
2013-02-10 03:40:00,26.9,22.7,30.41,SSE,158,0.0,0.0,84,0.00,,,0.00,Wunderground v.1.15,2013-02-10 08:40:00,
2013-02-10 03:45:00,26.8,22.9,30.41,SSE,158,0.0,0.0,85,0.00,,,0.00,Wunderground v.1.15,2013-02-10 08:45:00,
2013-02-10 03:51:00,26.7,22.8,30.41,SSE,158,0.0,0.0,85,0.00,,,0.00,Wunderground v.1.15,2013-02-10 08:51:00,
2013-02-10 03:57:00,26.6,22.7,30.41,SSE,158,0.0,0.0,85,0.00,,,0.00,Wunderground v.1.15,2013-02-10 08:57:00,
2013-02-10 04:03:00,26.5,22.6,30.41,SSE,158,0.0,0.0,85,0.00,,,0.00,Wunderground v.1.15,2013-02-10 09:03:00,
2013-02-10 04:08:00,26.4,22.5,30.41,SSE,158,0.0,0.0,85,0.00,,,0.00,Wunderground v.1.15,2013-02-10 09:08:00,
2013-02-10 04:14:00,26.3,22.7,30.41,SSE,158,0.0,0.0,86,0.00,,,0.00,Wunderground v.1.15,2013-02-10 09:14:00,
2013-02-10 04:20:00,26.3,22.7,30.41,SSE,158,0.0,0.0,86,0.00,,,0.00,Wunderground v.1.15,2013-02-10 09:20:00,
2013-02-10 04:26:00,26.2,22.6,30.41,SSE,158,0.0,0.0,86,0.00,,,0.00,Wunderground v.1.15,2013-02-10 09:26:00,
2013-02-10 04:32:00,26.1,22.5,30.41,SSE,158,0.0,0.0,86,0.00,,,0.00,Wunderground v.1.15,2013-02-10 09:32:00,
2013-02-10 04:38:00,26.0,22.4,30.41,SSE,158,0.0,0.0,86,0.00,,,0.00,Wunderground v.1.15,2013-02-10 09:38:00,
2013-02-10 04:44:00,25.9,22.3,30.41,SSE,158,0.0,0.0,86,0.00,,,0.00,Wunderground v.1.15,2013-02-10 09:44:00,
2013-02-10 04:49:00,25.8,22.2,30.41,SSE,158,0.0,0.0,86,0.00,,,0.00,Wunderground v.1.15,2013-02-10 09:49:00,
2013-02-10 04:55:00,25.8,22.5,30.41,SSE,158,0.0,0.0,87,0.00,,,0.00,Wunderground v.1.15,2013-02-10 09:55:00,
2013-02-10 05:01:00,25.7,22.4,30.41,SSE,158,0.0,0.0,87,0.00,,,0.00,Wunderground v.1.15,2013-02-10 10:01:00,
2013-02-10 05:07:00,25.6,22.3,30.41,SSE,158,0.0,0.0,87,0.00,,,0.00,Wunderground v.1.15,2013-02-10 10:07:00,
2013-02-10 05:12:00,25.6,22.3,30.41,SSE,158,0.0,0.0,87,0.00,,,0.00,Wunderground v.1.15,2013-02-10 10:12:00,
2013-02-10 05:18:00,25.7,22.4,30.42,SSE,158,0.0,0.0,87,0.00,,,0.00,Wunderground v.1.15,2013-02-10 10:18:00,
2013-02-10 05:24:00,25.7,22.6,30.42,SSE,158,0.0,0.0,88,0.00,,,0.00,Wunderground v.1.15,2013-02-10 10:24:00,
2013-02-10 05:30:00,25.8,22.7,30.42,SSE,158,0.0,0.0,88,0.00,,,0.00,Wunderground v.1.15,2013-02-10 10:30:00,
2013-02-10 05:35:00,25.9,22.8,30.42,SSE,158,0.0,0.0,88,0.00,,,0.00,Wunderground v.1.15,2013-02-10 10:35:00,
2013-02-10 05:41:00,26.1,23.0,30.42,SSE,158,0.0,0.0,88,0.00,,,0.00,Wunderground v.1.15,2013-02-10 10:41:00,
2013-02-10 05:47:00,26.2,23.1,30.43,SSE,158,0.0,0.0,88,0.00,,,0.00,Wunderground v.1.15,2013-02-10 10:47:00,
2013-02-10 05:53:00,26.3,23.2,30.43,SSE,158,0.0,0.0,88,0.00,,,0.00,Wunderground v.1.15,2013-02-10 10:53:00,
2013-02-10 05:59:00,26.4,23.3,30.43,SSE,158,0.0,0.0,88,0.00,,,0.00,Wunderground v.1.15,2013-02-10 10:59:00,
2013-02-10 06:04:00,26.5,23.4,30.43,SSE,158,0.0,0.0,88,0.00,,,0.00,Wunderground v.1.15,2013-02-10 11:04:00,
2013-02-10 06:10:00,26.7,23.6,30.43,SSE,158,0.0,0.0,88,0.00,,,0.00,Wunderground v.1.15,2013-02-10 11:10:00,
2013-02-10 06:15:00,26.8,23.7,30.43,SSE,158,0.0,0.0,88,0.00,,,0.00,Wunderground v.1.15,2013-02-10 11:15:00,
2013-02-10 06:21:00,26.9,23.8,30.44,SSE,158,0.0,0.0,88,0.00,,,0.00,Wunderground v.1.15,2013-02-10 11:21:00,
2013-02-10 06:26:00,27.0,23.9,30.44,SSE,158,0.0,0.0,88,0.00,,,0.00,Wunderground v.1.15,2013-02-10 11:26:00,
2013-02-10 06:32:00,27.0,23.9,30.44,SSE,158,0.0,0.0,88,0.00,,,0.00,Wunderground v.1.15,2013-02-10 11:32:00,
2013-02-10 06:38:00,27.1,24.0,30.44,SSE,158,0.0,0.0,88,0.00,,,0.00,Wunderground v.1.15,2013-02-10 11:38:00,
2013-02-10 06:44:00,27.1,24.0,30.44,SSE,158,0.0,0.0,88,0.00,,,0.00,Wunderground v.1.15,2013-02-10 11:44:00,
2013-02-10 06:49:00,27.1,24.0,30.44,SSE,158,0.0,0.0,88,0.00,,,0.00,Wunderground v.1.15,2013-02-10 11:49:00,
2013-02-10 06:55:00,27.1,24.0,30.45,SSE,158,0.0,0.0,88,0.00,,,0.00,Wunderground v.1.15,2013-02-10 11:55:00,
2013-02-10 07:01:00,27.1,24.0,30.45,SSE,158,0.0,0.0,88,0.00,,,0.00,Wunderground v.1.15,2013-02-10 12:01:00,
2013-02-10 07:07:00,27.0,23.9,30.45,SSE,158,0.0,0.0,88,0.00,,,0.00,Wunderground v.1.15,2013-02-10 12:07:00,
2013-02-10 07:12:00,27.0,23.9,30.45,SSE,158,0.0,0.0,88,0.00,,,0.00,Wunderground v.1.15,2013-02-10 12:12:00,
2013-02-10 07:18:00,26.9,23.8,30.46,SSE,158,0.0,0.0,88,0.00,,,0.00,Wunderground v.1.15,2013-02-10 12:18:00,
2013-02-10 07:24:00,26.9,23.8,30.47,SSE,158,0.0,0.0,88,0.00,,,0.00,Wunderground v.1.15,2013-02-10 12:24:00,
2013-02-10 07:29:00,26.9,23.8,30.47,SSE,158,0.0,0.0,88,0.00,,,0.00,Wunderground v.1.15,2013-02-10 12:29:00,
2013-02-10 07:34:00,27.0,23.9,30.47,SSE,158,0.0,0.0,88,0.00,,,0.00,Wunderground v.1.15,2013-02-10 12:34:00,
2013-02-10 07:39:00,27.0,23.9,30.47,SSE,158,0.0,0.0,88,0.00,,,0.00,Wunderground v.1.15,2013-02-10 12:39:00,
2013-02-10 07:45:00,27.1,24.0,30.47,SSE,158,0.0,0.0,88,0.00,,,0.00,Wunderground v.1.15,2013-02-10 12:45:00,
2013-02-10 07:51:00,27.3,24.2,30.47,SSE,158,0.0,0.0,88,0.00,,,0.00,Wunderground v.1.15,2013-02-10 12:51:00,
2013-02-10 07:57:00,27.5,24.4,30.47,SSE,158,0.0,0.0,88,0.00,,,0.00,Wunderground v.1.15,2013-02-10 12:57:00,
2013-02-10 08:02:00,27.8,24.4,30.47,SSE,158,0.0,0.0,87,0.00,,,0.00,Wunderground v.1.15,2013-02-10 13:02:00,
2013-02-10 08:08:00,28.2,24.8,30.48,SSE,158,0.0,0.0,87,0.00,,,0.00,Wunderground v.1.15,2013-02-10 13:08:00,
2013-02-10 08:14:00,28.5,25.1,30.48,SSE,158,0.0,0.0,87,0.00,,,0.00,Wunderground v.1.15,2013-02-10 13:14:00,
2013-02-10 08:20:00,28.8,25.1,30.49,SSE,158,0.0,0.0,86,0.00,,,0.00,Wunderground v.1.15,2013-02-10 13:20:00,
2013-02-10 08:26:00,29.2,25.3,30.49,SSE,158,0.0,0.0,85,0.00,,,0.00,Wunderground v.1.15,2013-02-10 13:26:00,
2013-02-10 08:32:00,29.8,25.3,30.49,SSE,158,0.0,0.0,83,0.00,,,0.00,Wunderground v.1.15,2013-02-10 13:32:00,
2013-02-10 08:38:00,30.8,25.1,30.49,SSE,158,0.0,0.0,79,0.00,,,0.00,Wunderground v.1.15,2013-02-10 13:38:00,
2013-02-10 08:43:00,31.8,24.8,30.49,SSE,158,0.0,0.0,75,0.00,,,0.00,Wunderground v.1.15,2013-02-10 13:43:00,
2013-02-10 08:49:00,32.7,24.7,30.49,SSE,158,0.0,0.0,72,0.00,,,0.00,Wunderground v.1.15,2013-02-10 13:49:00,
2013-02-10 08:55:00,33.3,24.6,30.49,SSE,158,0.0,0.0,70,0.00,,,0.00,Wunderground v.1.15,2013-02-10 13:55:00,
2013-02-10 09:01:00,33.8,24.7,30.49,SSE,158,0.0,0.0,69,0.00,,,0.00,Wunderground v.1.15,2013-02-10 14:01:00,
2013-02-10 09:06:00,34.2,24.0,30.49,SSE,158,0.0,0.0,66,0.00,,,0.00,Wunderground v.1.15,2013-02-10 14:06:00,
2013-02-10 09:12:00,34.7,24.5,30.49,WSW,238,0.0,0.0,66,0.00,,,0.00,Wunderground v.1.15,2013-02-10 14:12:00,
2013-02-10 09:18:00,35.1,24.1,30.50,WSW,238,0.0,0.0,64,0.00,,,0.00,Wunderground v.1.15,2013-02-10 14:18:00,
2013-02-10 09:24:00,35.5,24.1,30.50,SSW,208,0.0,0.0,63,0.00,,,0.00,Wunderground v.1.15,2013-02-10 14:24:00,
2013-02-10 09:29:00,35.9,24.1,30.50,SSW,208,0.0,0.0,62,0.00,,,0.00,Wunderground v.1.15,2013-02-10 14:29:00,
2013-02-10 09:35:00,36.1,23.9,30.49,SSW,208,0.0,0.0,61,0.00,,,0.00,Wunderground v.1.15,2013-02-10 14:35:00,
2013-02-10 09:40:00,36.4,24.2,30.49,SSW,208,0.0,0.0,61,0.00,,,0.00,Wunderground v.1.15,2013-02-10 14:40:00,
2013-02-10 09:46:00,36.7,24.1,30.50,SSW,210,0.0,0.0,60,0.00,,,0.00,Wunderground v.1.15,2013-02-10 14:46:00,
2013-02-10 09:51:00,37.0,24.4,30.50,SSW,210,0.0,0.0,60,0.00,,,0.00,Wunderground v.1.15,2013-02-10 14:51:00,
2013-02-10 09:57:00,37.5,25.3,30.50,WSW,246,0.0,0.0,61,0.00,,,0.00,Wunderground v.1.15,2013-02-10 14:57:00,
2013-02-10 10:03:00,37.8,24.3,30.50,SE,141,0.0,0.0,58,0.00,,,0.00,Wunderground v.1.15,2013-02-10 15:03:00,
2013-02-10 10:09:00,37.9,24.4,30.49,SE,139,0.0,0.0,58,0.00,,,0.00,Wunderground v.1.15,2013-02-10 15:09:00,
2013-02-10 10:15:00,38.0,24.1,30.48,SE,139,0.0,0.0,57,0.00,,,0.00,Wunderground v.1.15,2013-02-10 15:15:00,
2013-02-10 10:20:00,38.1,24.2,30.49,SE,139,0.0,0.0,57,0.00,,,0.00,Wunderground v.1.15,2013-02-10 15:20:00,
2013-02-10 10:26:00,38.2,23.9,30.49,SE,140,0.0,0.0,56,0.00,,,0.00,Wunderground v.1.15,2013-02-10 15:26:00,
2013-02-10 10:32:00,38.4,24.5,30.49,SSW,201,0.0,0.0,57,0.00,,,0.00,Wunderground v.1.15,2013-02-10 15:32:00,
2013-02-10 10:37:00,38.7,23.9,30.48,South,170,0.0,0.0,55,0.00,,,0.00,Wunderground v.1.15,2013-02-10 15:37:00,
2013-02-10 10:43:00,39.0,24.6,30.49,SSE,163,0.0,0.0,56,0.00,,,0.00,Wunderground v.1.15,2013-02-10 15:43:00,
2013-02-10 10:49:00,39.3,24.5,30.50,SW,224,0.0,0.0,55,0.00,,,0.00,Wunderground v.1.15,2013-02-10 15:49:00,
2013-02-10 10:55:00,39.5,25.5,30.50,SW,217,0.0,1.0,57,0.00,,,0.00,Wunderground v.1.15,2013-02-10 15:55:00,
2013-02-10 11:01:00,39.9,24.6,30.50,South,172,0.0,0.0,54,0.00,,,0.00,Wunderground v.1.15,2013-02-10 16:01:00,
2013-02-10 11:07:00,40.0,24.7,30.50,SSE,162,0.0,0.0,54,0.00,,,0.00,Wunderground v.1.15,2013-02-10 16:07:00,
2013-02-10 11:13:00,40.4,24.6,30.50,SSE,164,0.0,0.0,53,0.00,,,0.00,Wunderground v.1.15,2013-02-10 16:13:00,
2013-02-10 11:18:00,40.7,24.4,30.49,WSW,250,0.0,0.0,52,0.00,,,0.00,Wunderground v.1.15,2013-02-10 16:18:00,
2013-02-10 11:23:00,41.1,24.3,30.49,WSW,250,0.0,0.0,51,0.00,,,0.00,Wunderground v.1.15,2013-02-10 16:23:00,
2013-02-10 11:29:00,41.7,24.4,30.48,West,261,0.0,0.0,50,0.00,,,0.00,Wunderground v.1.15,2013-02-10 16:29:00,
2013-02-10 11:35:00,42.2,25.3,30.48,West,281,0.0,1.0,51,0.00,,,0.00,Wunderground v.1.15,2013-02-10 16:35:00,
2013-02-10 11:41:00,43.2,25.3,30.47,WSW,257,0.0,0.0,49,0.00,,,0.00,Wunderground v.1.15,2013-02-10 16:41:00,
2013-02-10 11:46:00,43.5,25.1,30.47,ESE,110,0.0,0.0,48,0.00,,,0.00,Wunderground v.1.15,2013-02-10 16:46:00,
2013-02-10 11:51:00,43.8,25.4,30.47,ESE,108,0.0,0.0,48,0.00,,,0.00,Wunderground v.1.15,2013-02-10 16:51:00,
2013-02-10 11:57:00,44.3,25.3,30.48,West,259,0.0,0.0,47,0.00,,,0.00,Wunderground v.1.15,2013-02-10 16:57:00,
2013-02-10 12:03:00,45.3,26.2,30.47,East,82,0.0,1.0,47,0.00,,,0.00,Wunderground v.1.15,2013-02-10 17:03:00,
2013-02-10 12:09:00,45.6,25.5,30.46,West,259,0.0,1.0,45,0.00,,,0.00,Wunderground v.1.15,2013-02-10 17:09:00,
2013-02-10 12:15:00,46.2,25.5,30.46,WSW,249,0.0,1.0,44,0.00,,,0.00,Wunderground v.1.15,2013-02-10 17:15:00,
2013-02-10 12:20:00,46.8,25.5,30.44,SE,137,0.0,0.0,43,0.00,,,0.00,Wunderground v.1.15,2013-02-10 17:20:00,
2013-02-10 12:26:00,47.1,25.2,30.45,East,101,0.0,0.0,42,0.00,,,0.00,Wunderground v.1.15,2013-02-10 17:26:00,
2013-02-10 12:31:00,47.5,24.9,30.45,East,101,0.0,0.0,41,0.00,,,0.00,Wunderground v.1.15,2013-02-10 17:31:00,
2013-02-10 12:37:00,47.6,23.8,30.44,ENE,68,0.0,1.0,39,0.00,,,0.00,Wunderground v.1.15,2013-02-10 17:37:00,
2013-02-10 12:42:00,47.8,24.6,30.44,NW,322,0.0,1.0,40,0.00,,,0.00,Wunderground v.1.15,2013-02-10 17:42:00,
2013-02-10 12:48:00,48.4,25.8,30.42,WNW,294,1.0,3.0,41,0.00,,,0.00,Wunderground v.1.15,2013-02-10 17:48:00,
2013-02-10 12:54:00,48.8,25.5,30.43,WSW,253,1.0,1.0,40,0.00,,,0.00,Wunderground v.1.15,2013-02-10 17:54:00,
2013-02-10 13:00:00,49.2,25.3,30.43,NE,55,0.0,0.0,39,0.00,,,0.00,Wunderground v.1.15,2013-02-10 18:00:00,
2013-02-10 13:06:00,49.5,24.9,30.42,ENE,63,0.0,2.0,38,0.00,,,0.00,Wunderground v.1.15,2013-02-10 18:06:00,
2013-02-10 13:12:00,49.7,25.1,30.42,SW,235,1.0,1.0,38,0.00,,,0.00,Wunderground v.1.15,2013-02-10 18:12:00,
2013-02-10 13:17:00,50.3,25.0,30.41,NW,311,1.0,1.0,37,0.00,,,0.00,Wunderground v.1.15,2013-02-10 18:17:00,
2013-02-10 13:23:00,50.8,25.4,30.41,West,262,0.0,1.0,37,0.00,,,0.00,Wunderground v.1.15,2013-02-10 18:23:00,
2013-02-10 13:29:00,51.5,26.7,30.40,NNE,24,0.0,2.0,38,0.00,,,0.00,Wunderground v.1.15,2013-02-10 18:29:00,
2013-02-10 13:34:00,51.6,26.1,30.40,ENE,72,1.0,2.0,37,0.00,,,0.00,Wunderground v.1.15,2013-02-10 18:34:00,
2013-02-10 13:40:00,51.8,25.0,30.39,WNW,283,1.0,1.0,35,0.00,,,0.00,Wunderground v.1.15,2013-02-10 18:40:00,
2013-02-10 13:46:00,52.1,25.9,30.39,ENE,68,0.0,1.0,36,0.00,,,0.00,Wunderground v.1.15,2013-02-10 18:46:00,
2013-02-10 13:51:00,52.3,24.7,30.39,ESE,105,0.0,0.0,34,0.00,,,0.00,Wunderground v.1.15,2013-02-10 18:51:00,
2013-02-10 13:56:00,52.4,25.5,30.39,East,101,1.0,1.0,35,0.00,,,0.00,Wunderground v.1.15,2013-02-10 18:56:00,
2013-02-10 14:02:00,52.9,26.0,30.39,West,264,1.0,1.0,35,0.00,,,0.00,Wunderground v.1.15,2013-02-10 19:02:00,
2013-02-10 14:08:00,53.2,24.1,30.39,NE,53,0.0,2.0,32,0.00,,,0.00,Wunderground v.1.15,2013-02-10 19:08:00,
2013-02-10 14:14:00,53.1,24.7,30.38,WNW,283,1.0,1.0,33,0.00,,,0.00,Wunderground v.1.15,2013-02-10 19:14:00,
2013-02-10 14:20:00,52.5,24.9,30.38,WNW,294,1.0,1.0,34,0.00,,,0.00,Wunderground v.1.15,2013-02-10 19:20:00,
2013-02-10 14:26:00,52.2,24.6,30.38,NW,324,0.0,1.0,34,0.00,,,0.00,Wunderground v.1.15,2013-02-10 19:26:00,
2013-02-10 14:31:00,52.1,25.3,30.37,NW,307,0.0,0.0,35,0.00,,,0.00,Wunderground v.1.15,2013-02-10 19:31:00,
2013-02-10 14:36:00,52.0,25.2,30.37,WNW,302,0.0,1.0,35,0.00,,,0.00,Wunderground v.1.15,2013-02-10 19:36:00,
2013-02-10 14:42:00,52.1,25.3,30.36,NW,318,0.0,0.0,35,0.00,,,0.00,Wunderground v.1.15,2013-02-10 19:42:00,
2013-02-10 14:47:00,52.6,25.0,30.36,East,98,0.0,1.0,34,0.00,,,0.00,Wunderground v.1.15,2013-02-10 19:47:00,
2013-02-10 14:53:00,52.9,25.3,30.36,East,98,0.0,0.0,34,0.00,,,0.00,Wunderground v.1.15,2013-02-10 19:53:00,
2013-02-10 14:59:00,52.8,24.5,30.35,East,82,0.0,1.0,33,0.00,,,0.00,Wunderground v.1.15,2013-02-10 19:59:00,
2013-02-10 15:04:00,52.4,24.8,30.35,ESE,102,0.0,1.0,34,0.00,,,0.00,Wunderground v.1.15,2013-02-10 20:04:00,
2013-02-10 15:09:00,52.1,24.6,30.34,ESE,104,1.0,1.0,34,0.00,,,0.00,Wunderground v.1.15,2013-02-10 20:09:00,
2013-02-10 15:15:00,52.2,23.9,30.34,West,281,1.0,2.0,33,0.00,,,0.00,Wunderground v.1.15,2013-02-10 20:15:00,
2013-02-10 15:21:00,52.4,25.5,30.34,ESE,113,0.0,1.0,35,0.00,,,0.00,Wunderground v.1.15,2013-02-10 20:21:00,
2013-02-10 15:27:00,52.5,24.9,30.34,West,280,0.0,1.0,34,0.00,,,0.00,Wunderground v.1.15,2013-02-10 20:27:00,
2013-02-10 15:32:00,52.7,25.1,30.33,West,270,0.0,1.0,34,0.00,,,0.00,Wunderground v.1.15,2013-02-10 20:32:00,
2013-02-10 15:38:00,52.9,24.5,30.34,North,352,0.0,1.0,33,0.00,,,0.00,Wunderground v.1.15,2013-02-10 20:38:00,
2013-02-10 15:44:00,52.9,24.5,30.34,West,281,0.0,1.0,33,0.00,,,0.00,Wunderground v.1.15,2013-02-10 20:44:00,
2013-02-10 15:50:00,52.6,24.3,30.33,East,92,0.0,1.0,33,0.00,,,0.00,Wunderground v.1.15,2013-02-10 20:50:00,
2013-02-10 15:55:00,52.6,24.3,30.33,NE,41,1.0,1.0,33,0.00,,,0.00,Wunderground v.1.15,2013-02-10 20:55:00,
2013-02-10 16:01:00,52.9,25.3,30.33,NNW,347,0.0,0.0,34,0.00,,,0.00,Wunderground v.1.15,2013-02-10 21:01:00,
2013-02-10 16:07:00,53.1,24.7,30.34,NW,314,0.0,1.0,33,0.00,,,0.00,Wunderground v.1.15,2013-02-10 21:07:00,
2013-02-10 16:12:00,53.3,24.9,30.34,NNW,328,0.0,2.0,33,0.00,,,0.00,Wunderground v.1.15,2013-02-10 21:12:00,
2013-02-10 16:18:00,53.3,24.2,30.34,NNW,328,0.0,2.0,32,0.00,,,0.00,Wunderground v.1.15,2013-02-10 21:18:00,
2013-02-10 16:24:00,53.2,25.5,30.34,ESE,111,0.0,1.0,34,0.00,,,0.00,Wunderground v.1.15,2013-02-10 21:24:00,
2013-02-10 16:30:00,53.3,24.9,30.33,NW,305,0.0,0.0,33,0.00,,,0.00,Wunderground v.1.15,2013-02-10 21:30:00,
2013-02-10 16:36:00,53.2,24.8,30.33,West,281,0.0,1.0,33,0.00,,,0.00,Wunderground v.1.15,2013-02-10 21:36:00,
2013-02-10 16:42:00,52.9,24.5,30.33,West,269,0.0,2.0,33,0.00,,,0.00,Wunderground v.1.15,2013-02-10 21:42:00,
2013-02-10 16:48:00,52.7,23.6,30.33,WNW,287,0.0,2.0,32,0.00,,,0.00,Wunderground v.1.15,2013-02-10 21:48:00,
2013-02-10 16:53:00,52.5,24.9,30.32,North,4,0.0,0.0,34,0.00,,,0.00,Wunderground v.1.15,2013-02-10 21:53:00,
2013-02-10 16:59:00,52.2,24.6,30.32,North,3,0.0,0.0,34,0.00,,,0.00,Wunderground v.1.15,2013-02-10 21:59:00,
2013-02-10 17:05:00,51.9,24.4,30.32,East,99,0.0,0.0,34,0.00,,,0.00,Wunderground v.1.15,2013-02-10 22:05:00,
2013-02-10 17:10:00,51.7,24.9,30.32,East,99,0.0,0.0,35,0.00,,,0.00,Wunderground v.1.15,2013-02-10 22:10:00,
2013-02-10 17:16:00,51.4,23.9,30.32,East,99,0.0,0.0,34,0.00,,,0.00,Wunderground v.1.15,2013-02-10 22:16:00,
2013-02-10 17:21:00,51.2,24.5,30.32,East,99,0.0,0.0,35,0.00,,,0.00,Wunderground v.1.15,2013-02-10 22:21:00,
2013-02-10 17:27:00,51.1,24.4,30.32,ESE,111,0.0,0.0,35,0.00,,,0.00,Wunderground v.1.15,2013-02-10 22:27:00,
2013-02-10 17:32:00,50.9,25.5,30.33,ESE,112,0.0,0.0,37,0.00,,,0.00,Wunderground v.1.15,2013-02-10 22:32:00,
2013-02-10 17:38:00,50.6,24.6,30.32,ESE,112,0.0,0.0,36,0.00,,,0.00,Wunderground v.1.15,2013-02-10 22:38:00,
2013-02-10 17:43:00,50.5,24.5,30.32,ESE,112,0.0,0.0,36,0.00,,,0.00,Wunderground v.1.15,2013-02-10 22:43:00,
2013-02-10 17:48:00,50.3,25.6,30.32,ESE,111,0.0,0.0,38,0.00,,,0.00,Wunderground v.1.15,2013-02-10 22:48:00,
2013-02-10 17:54:00,50.1,25.5,30.32,ESE,112,0.0,0.0,38,0.00,,,0.00,Wunderground v.1.15,2013-02-10 22:54:00,
2013-02-10 18:00:00,49.8,25.2,30.31,ESE,112,0.0,0.0,38,0.00,,,0.00,Wunderground v.1.15,2013-02-10 23:00:00,
2013-02-10 18:06:00,49.5,24.9,30.30,ESE,112,0.0,0.0,38,0.00,,,0.00,Wunderground v.1.15,2013-02-10 23:06:00,
2013-02-10 18:11:00,49.3,25.4,30.29,ESE,112,0.0,0.0,39,0.00,,,0.00,Wunderground v.1.15,2013-02-10 23:11:00,
2013-02-10 18:17:00,48.9,25.6,30.29,ESE,112,0.0,0.0,40,0.00,,,0.00,Wunderground v.1.15,2013-02-10 23:17:00,
2013-02-10 18:23:00,48.6,25.3,30.29,ESE,112,0.0,0.0,40,0.00,,,0.00,Wunderground v.1.15,2013-02-10 23:23:00,
2013-02-10 18:29:00,48.4,25.8,30.29,ESE,111,0.0,0.0,41,0.00,,,0.00,Wunderground v.1.15,2013-02-10 23:29:00,
2013-02-10 18:35:00,48.2,26.2,30.30,ESE,111,0.0,0.0,42,0.00,,,0.00,Wunderground v.1.15,2013-02-10 23:35:00,
2013-02-10 18:40:00,48.0,26.5,30.30,ESE,112,0.0,0.0,43,0.00,,,0.00,Wunderground v.1.15,2013-02-10 23:40:00,
2013-02-10 18:46:00,47.6,27.8,30.30,ESE,112,0.0,0.0,46,0.00,,,0.00,Wunderground v.1.15,2013-02-10 23:46:00,
2013-02-10 18:51:00,47.3,27.5,30.30,ESE,112,0.0,0.0,46,0.00,,,0.00,Wunderground v.1.15,2013-02-10 23:51:00,
2013-02-10 18:57:00,46.9,27.2,30.30,ESE,111,0.0,0.0,46,0.00,,,0.00,Wunderground v.1.15,2013-02-10 23:57:00,
2013-02-10 19:03:00,46.7,28.0,30.30,ESE,112,0.0,0.0,48,0.00,,,0.00,Wunderground v.1.15,2013-02-11 00:03:00,
2013-02-10 19:09:00,46.6,28.4,30.30,ESE,112,0.0,0.0,49,0.00,,,0.00,Wunderground v.1.15,2013-02-11 00:09:00,
2013-02-10 19:14:00,46.5,28.8,30.31,ESE,112,0.0,0.0,50,0.00,,,0.00,Wunderground v.1.15,2013-02-11 00:14:00,
2013-02-10 19:20:00,46.2,29.5,30.31,ESE,111,0.0,0.0,52,0.00,,,0.00,Wunderground v.1.15,2013-02-11 00:20:00,
2013-02-10 19:26:00,46.0,29.3,30.31,ESE,112,0.0,0.0,52,0.00,,,0.00,Wunderground v.1.15,2013-02-11 00:26:00,
2013-02-10 19:31:00,45.9,29.7,30.31,ESE,112,0.0,0.0,53,0.00,,,0.00,Wunderground v.1.15,2013-02-11 00:31:00,
2013-02-10 19:37:00,45.7,30.0,30.31,ESE,111,0.0,0.0,54,0.00,,,0.00,Wunderground v.1.15,2013-02-11 00:37:00,
2013-02-10 19:43:00,45.6,30.3,30.31,ESE,112,0.0,0.0,55,0.00,,,0.00,Wunderground v.1.15,2013-02-11 00:43:00,
2013-02-10 19:48:00,45.6,30.8,30.31,ESE,112,0.0,0.0,56,0.00,,,0.00,Wunderground v.1.15,2013-02-11 00:48:00,
2013-02-10 19:53:00,45.6,30.3,30.31,ESE,111,0.0,0.0,55,0.00,,,0.00,Wunderground v.1.15,2013-02-11 00:53:00,
2013-02-10 19:59:00,45.6,31.2,30.31,ESE,111,0.0,0.0,57,0.00,,,0.00,Wunderground v.1.15,2013-02-11 00:59:00,
2013-02-10 20:05:00,45.6,31.2,30.31,ESE,112,0.0,0.0,57,0.00,,,0.00,Wunderground v.1.15,2013-02-11 01:05:00,
2013-02-10 20:11:00,45.6,31.2,30.31,ESE,112,0.0,0.0,57,0.00,,,0.00,Wunderground v.1.15,2013-02-11 01:11:00,
2013-02-10 20:16:00,45.6,31.2,30.30,ESE,112,0.0,0.0,57,0.00,,,0.00,Wunderground v.1.15,2013-02-11 01:16:00,
2013-02-10 20:22:00,45.7,30.9,30.31,ESE,112,0.0,0.0,56,0.00,,,0.00,Wunderground v.1.15,2013-02-11 01:22:00,
2013-02-10 20:28:00,45.8,31.9,30.30,ESE,112,0.0,0.0,58,0.00,,,0.00,Wunderground v.1.15,2013-02-11 01:28:00,
2013-02-10 20:34:00,45.9,32.8,30.30,ESE,112,0.0,0.0,60,0.00,,,0.00,Wunderground v.1.15,2013-02-11 01:34:00,
2013-02-10 20:40:00,45.9,31.9,30.31,ESE,112,0.0,0.0,58,0.00,,,0.00,Wunderground v.1.15,2013-02-11 01:40:00,
2013-02-10 20:46:00,45.9,32.4,30.31,ESE,111,0.0,0.0,59,0.00,,,0.00,Wunderground v.1.15,2013-02-11 01:46:00,
2013-02-10 20:52:00,45.9,31.9,30.31,ESE,112,0.0,0.0,58,0.00,,,0.00,Wunderground v.1.15,2013-02-11 01:52:00,
2013-02-10 20:57:00,45.8,32.3,30.31,ESE,111,0.0,0.0,59,0.00,,,0.00,Wunderground v.1.15,2013-02-11 01:57:00,
2013-02-10 21:03:00,45.8,32.3,30.31,ESE,111,0.0,0.0,59,0.00,,,0.00,Wunderground v.1.15,2013-02-11 02:03:00,
2013-02-10 21:08:00,45.8,32.7,30.30,ESE,111,0.0,0.0,60,0.00,,,0.00,Wunderground v.1.15,2013-02-11 02:08:00,
2013-02-10 22:09:00,45.9,33.2,30.30,ESE,112,0.0,0.0,61,0.00,,,0.00,Wunderground v.1.15,2013-02-11 03:09:00,
2013-02-10 22:15:00,45.8,33.9,30.29,ESE,112,0.0,0.0,63,0.00,,,0.00,Wunderground v.1.15,2013-02-11 03:15:00,
2013-02-10 22:20:00,45.7,33.8,30.29,ESE,111,0.0,0.0,63,0.00,,,0.00,Wunderground v.1.15,2013-02-11 03:20:00,
2013-02-10 22:25:00,45.7,33.4,30.29,ESE,111,0.0,0.0,62,0.00,,,0.00,Wunderground v.1.15,2013-02-11 03:25:00,
2013-02-10 22:31:00,45.7,36.8,30.28,ESE,112,0.0,0.0,71,0.00,,,0.00,Wunderground v.1.15,2013-02-11 03:31:00,
2013-02-10 22:36:00,45.0,37.6,30.29,ESE,112,0.0,0.0,75,0.00,,,0.01,Wunderground v.1.15,2013-02-11 03:36:00,
2013-02-10 22:42:00,44.1,38.0,30.28,ESE,112,0.0,0.0,79,0.14,,,0.02,Wunderground v.1.15,2013-02-11 03:42:00,
2013-02-10 22:47:00,43.5,38.1,30.28,ESE,112,0.0,0.0,81,0.11,,,0.03,Wunderground v.1.15,2013-02-11 03:47:00,
2013-02-10 22:53:00,43.1,38.3,30.27,ESE,111,0.0,0.0,83,0.07,,,0.03,Wunderground v.1.15,2013-02-11 03:53:00,
2013-02-10 22:58:00,42.5,38.3,30.26,ESE,112,0.0,0.0,85,0.04,,,0.03,Wunderground v.1.15,2013-02-11 03:58:00,
2013-02-10 23:04:00,42.3,38.1,30.25,ESE,112,0.0,0.0,85,0.04,,,0.04,Wunderground v.1.15,2013-02-11 04:04:00,
2013-02-10 23:09:00,42.1,38.2,30.25,ESE,111,0.0,0.0,86,0.04,,,0.04,Wunderground v.1.15,2013-02-11 04:09:00,
2013-02-10 23:14:00,42.0,38.4,30.25,ESE,111,0.0,0.0,87,0.04,,,0.04,Wunderground v.1.15,2013-02-11 04:14:00,
2013-02-10 23:20:00,41.9,38.6,30.23,ESE,112,0.0,0.0,88,0.00,,,0.04,Wunderground v.1.15,2013-02-11 04:20:00,
2013-02-10 23:25:00,41.7,38.4,30.23,ESE,111,0.0,0.0,88,0.00,,,0.04,Wunderground v.1.15,2013-02-11 04:25:00,
2013-02-10 23:31:00,41.6,38.6,30.23,ESE,112,0.0,0.0,89,0.00,,,0.05,Wunderground v.1.15,2013-02-11 04:31:00,
2013-02-10 23:36:00,41.6,38.6,30.22,ESE,112,0.0,0.0,89,0.00,,,0.05,Wunderground v.1.15,2013-02-11 04:36:00,
2013-02-10 23:41:00,41.5,38.5,30.22,ESE,112,0.0,0.0,89,0.00,,,0.05,Wunderground v.1.15,2013-02-11 04:41:00,
2013-02-10 23:47:00,41.5,38.5,30.22,ESE,111,0.0,0.0,89,0.00,,,0.05,Wunderground v.1.15,2013-02-11 04:47:00,
2013-02-10 23:52:00,41.5,38.8,30.22,ESE,112,0.0,0.0,90,0.00,,,0.05,Wunderground v.1.15,2013-02-11 04:52:00,
2013-02-10 23:57:00,41.6,38.9,30.22,ESE,111,0.0,0.0,90,0.00,,,0.05,Wunderground v.1.15,2013-02-11 04:57:00,